OIAA

Abadan-Ayatollah Jami International Airport

Airport
ICAO code
OIAA
IATA Code
ABD
Summary
ICAO Region
MID
ICAO Territory
Location

Abadan, Khuzestan

Serving
Abadan
Elevation
7 ft
Coordinates
30° 21' 51" N , 48° 13' 37" E
KCC
Metar
Observation
OIAA 070400Z 03004KT 3000 BR NSC 17/15 Q1018
Station
Abadan
Date/Time
2022-12-07 04:00:00
Wind direction
30°
Wind speed
04 kts
Lowest cloud amount
nil significant cloud
Temperature
17°C
Dew point
15°C
Humidity
88%
QNH
1018 hPa
Weather condition
n/a

Abadan International Airport is situated 12 km away from the city of Abadan, Iran.

Climatology

Warm desert climate (Köppen climate classification BWh).

Runways

Designator Length Width Surface Rops
14L/32R 2267 35 ASP No/No
14R/32L 3100 45 ASP No/No

Airport map

Aerial View

SKYbrary Partners:

Safety knowledge contributed by: